Time;durP1;ratioP1;P1;durP2;ratioP2;P2;SDS_P1;SDS_P2;PMS_P1;PMS_P2;Temp;Humidity;BMP_temperature;BMP_pressure;BME280_temperature;BME280_humidity;BME280_pressure;Samples;Min_cycle;Max_cycle;Signal;HPM_P1;HPM_P2
2022/10/25 00:00:11;;;;;;;2.67;2.57;;;;;;;;;;5012426;28;20220;-59
2022/10/25 00:02:37;;;;;;;2.17;2.07;;;;;;;;;;5008667;28;20230;-60
2022/10/25 00:05:04;;;;;;;2.30;2.20;;;;;;;;;;5018640;28;20307;-59
2022/10/25 00:07:29;;;;;;;2.37;2.27;;;;;;;;;;5013799;28;20222;-59
2022/10/25 00:09:55;;;;;;;2.57;2.47;;;;;;;;;;5016137;28;20232;-59
2022/10/25 00:12:21;;;;;;;2.70;2.60;;;;;;;;;;5001949;28;20227;-59
2022/10/25 00:14:47;;;;;;;2.80;2.70;;;;;;;;;;5010040;28;21144;-59
2022/10/25 00:17:13;;;;;;;2.40;2.30;;;;;;;;;;5007899;28;20233;-60
2022/10/25 00:19:39;;;;;;;2.60;2.50;;;;;;;;;;4996928;28;20699;-61
2022/10/25 00:22:05;;;;;;;2.50;2.40;;;;;;;;;;5003036;28;20263;-59
2022/10/25 00:24:31;;;;;;;2.60;2.50;;;;;;;;;;4992133;28;20561;-59
2022/10/25 00:26:57;;;;;;;2.10;2.00;;;;;;;;;;4994056;28;20695;-60
2022/10/25 00:29:23;;;;;;;2.10;2.00;;;;;;;;;;5005551;28;20253;-60
2022/10/25 00:31:49;;;;;;;2.80;2.70;;;;;;;;;;4999845;28;20542;-59
2022/10/25 00:34:15;;;;;;;2.30;2.20;;;;;;;;;;5008300;28;20241;-60
2022/10/25 00:36:41;;;;;;;2.63;2.53;;;;;;;;;;4998254;28;20217;-59
2022/10/25 00:39:06;;;;;;;2.40;2.30;;;;;;;;;;5010896;28;20272;-60
2022/10/25 00:41:33;;;;;;;2.60;2.50;;;;;;;;;;5005875;28;20241;-59
2022/10/25 00:44:18;;;;;;;2.30;2.20;;;;;;;;;;5000969;28;20221;-59
2022/10/25 00:46:44;;;;;;;2.40;2.30;;;;;;;;;;5006121;28;20232;-60
2022/10/25 00:49:14;;;;;;;2.13;2.03;;;;;;;;;;5012176;28;20222;-60
2022/10/25 00:51:41;;;;;;;2.47;2.37;;;;;;;;;;5006682;28;20228;-59
2022/10/25 00:54:07;;;;;;;2.30;2.20;;;;;;;;;;4991876;28;21781;-60
2022/10/25 00:56:33;;;;;;;2.10;2.00;;;;;;;;;;4993392;28;20236;-59
2022/10/25 00:59:00;;;;;;;2.37;2.27;;;;;;;;;;4981338;28;20230;-59
2022/10/25 01:01:26;;;;;;;2.10;2.00;;;;;;;;;;4997335;28;20300;-60
2022/10/25 01:03:53;;;;;;;2.80;2.70;;;;;;;;;;5012603;28;20224;-59
2022/10/25 01:06:26;;;;;;;2.60;2.50;;;;;;;;;;5002474;28;20233;-59
2022/10/25 01:08:52;;;;;;;2.10;2.00;;;;;;;;;;5015768;28;20249;-59
2022/10/25 01:11:18;;;;;;;2.00;1.90;;;;;;;;;;5012087;28;20470;-59
2022/10/25 01:13:44;;;;;;;1.87;1.77;;;;;;;;;;5012789;28;20227;-59
2022/10/25 01:16:12;;;;;;;1.53;1.53;;;;;;;;;;5017002;28;20225;-60
2022/10/25 01:18:42;;;;;;;1.40;1.40;;;;;;;;;;5006471;28;20221;-60
2022/10/25 01:21:08;;;;;;;1.57;1.57;;;;;;;;;;5018296;28;20252;-59
2022/10/25 01:23:45;;;;;;;1.60;1.60;;;;;;;;;;5016187;28;20237;-59
2022/10/25 01:26:16;;;;;;;1.90;1.80;;;;;;;;;;5006078;28;20235;-59
2022/10/25 01:29:02;;;;;;;1.60;1.60;;;;;;;;;;5005108;28;20575;-59
2022/10/25 01:31:35;;;;;;;1.40;1.40;;;;;;;;;;5005882;28;20228;-59
2022/10/25 01:34:01;;;;;;;1.80;1.70;;;;;;;;;;5007665;28;20236;-60
2022/10/25 01:36:40;;;;;;;1.73;1.70;;;;;;;;;;5011107;28;20293;-59
2022/10/25 01:39:09;;;;;;;1.53;1.53;;;;;;;;;;5012721;28;20271;-60
2022/10/25 01:41:41;;;;;;;1.80;1.70;;;;;;;;;;5011006;28;20228;-60
2022/10/25 01:44:11;;;;;;;1.67;1.67;;;;;;;;;;5020514;28;20239;-59
2022/10/25 01:46:40;;;;;;;1.50;1.50;;;;;;;;;;5000287;28;20217;-59
2022/10/25 01:49:08;;;;;;;1.60;1.60;;;;;;;;;;5019241;28;20226;-60
2022/10/25 01:51:37;;;;;;;1.80;1.70;;;;;;;;;;4987449;28;20217;-60
2022/10/25 01:54:03;;;;;;;1.53;1.53;;;;;;;;;;5017072;28;20240;-60
2022/10/25 01:56:30;;;;;;;1.60;1.60;;;;;;;;;;5016600;28;20288;-60
2022/10/25 01:59:09;;;;;;;1.43;1.43;;;;;;;;;;5008003;28;20228;-60
2022/10/25 02:01:43;;;;;;;1.60;1.60;;;;;;;;;;4994344;28;20287;-60
2022/10/25 02:04:28;;;;;;;1.50;1.50;;;;;;;;;;5019266;28;20220;-60
2022/10/25 02:07:12;;;;;;;1.50;1.50;;;;;;;;;;5008954;28;20236;-59
2022/10/25 02:09:44;;;;;;;1.57;1.57;;;;;;;;;;5013628;28;20224;-60
2022/10/25 02:12:12;;;;;;;1.30;1.30;;;;;;;;;;5021106;28;20229;-59
2022/10/25 02:14:38;;;;;;;1.40;1.40;;;;;;;;;;5002356;28;20234;-59
2022/10/25 02:17:06;;;;;;;1.30;1.30;;;;;;;;;;5013933;28;20221;-60
2022/10/25 02:19:33;;;;;;;1.30;1.30;;;;;;;;;;4997797;28;20396;-59
2022/10/25 02:22:00;;;;;;;1.53;1.53;;;;;;;;;;4987385;28;20240;-59
2022/10/25 02:24:26;;;;;;;1.20;1.20;;;;;;;;;;4984213;28;20221;-60
2022/10/25 02:26:51;;;;;;;1.50;1.50;;;;;;;;;;5016113;28;20221;-60
2022/10/25 02:29:18;;;;;;;1.50;1.50;;;;;;;;;;5013146;28;20240;-59
2022/10/25 02:31:44;;;;;;;1.43;1.43;;;;;;;;;;5007300;28;20225;-59
2022/10/25 02:34:10;;;;;;;1.50;1.50;;;;;;;;;;4996127;28;20322;-59
2022/10/25 02:36:35;;;;;;;1.50;1.50;;;;;;;;;;5005009;28;20624;-59
2022/10/25 02:39:01;;;;;;;1.50;1.50;;;;;;;;;;5008713;28;20341;-59
2022/10/25 02:41:27;;;;;;;1.40;1.40;;;;;;;;;;5016082;28;20227;-59
2022/10/25 02:43:53;;;;;;;1.50;1.50;;;;;;;;;;5010568;28;20295;-60
2022/10/25 02:46:20;;;;;;;1.30;1.30;;;;;;;;;;5007912;28;20229;-59
2022/10/25 02:48:46;;;;;;;1.23;1.23;;;;;;;;;;5002270;28;20225;-59
2022/10/25 02:51:12;;;;;;;1.43;1.43;;;;;;;;;;4977509;28;20289;-60
2022/10/25 02:53:38;;;;;;;1.23;1.23;;;;;;;;;;4997233;28;20225;-59
2022/10/25 02:56:05;;;;;;;1.20;1.20;;;;;;;;;;5005204;28;20688;-59
2022/10/25 02:58:32;;;;;;;1.43;1.43;;;;;;;;;;5005202;28;20225;-60
2022/10/25 03:00:58;;;;;;;1.30;1.30;;;;;;;;;;5005554;28;20331;-59
2022/10/25 03:03:24;;;;;;;1.40;1.40;;;;;;;;;;5005249;28;20785;-60
2022/10/25 03:05:50;;;;;;;1.43;1.43;;;;;;;;;;5006678;28;20248;-59
2022/10/25 03:08:16;;;;;;;1.53;1.53;;;;;;;;;;4994337;28;20237;-59
2022/10/25 03:10:42;;;;;;;1.30;1.30;;;;;;;;;;4983792;28;21409;-59
2022/10/25 03:13:08;;;;;;;1.30;1.30;;;;;;;;;;4991006;28;20233;-59
2022/10/25 03:15:34;;;;;;;1.30;1.30;;;;;;;;;;4993055;28;21066;-59
2022/10/25 03:18:00;;;;;;;1.53;1.53;;;;;;;;;;5006486;28;20237;-60
2022/10/25 03:20:26;;;;;;;1.40;1.40;;;;;;;;;;5010432;28;20815;-59
2022/10/25 03:22:52;;;;;;;1.20;1.20;;;;;;;;;;5004899;28;20237;-59
2022/10/25 03:25:17;;;;;;;1.50;1.50;;;;;;;;;;5003549;28;20220;-59
2022/10/25 03:27:43;;;;;;;1.20;1.20;;;;;;;;;;4996084;28;20244;-59
2022/10/25 03:30:10;;;;;;;1.20;1.20;;;;;;;;;;5004598;28;20227;-59
2022/10/25 03:32:36;;;;;;;1.30;1.30;;;;;;;;;;5002018;28;20225;-59
2022/10/25 03:35:02;;;;;;;1.50;1.50;;;;;;;;;;4992770;28;20243;-60
2022/10/25 03:37:27;;;;;;;1.50;1.50;;;;;;;;;;4997154;28;20329;-60
2022/10/25 03:39:53;;;;;;;1.20;1.20;;;;;;;;;;5002223;28;20275;-59
2022/10/25 03:42:19;;;;;;;1.20;1.20;;;;;;;;;;5010846;28;20303;-59
2022/10/25 03:44:45;;;;;;;1.30;1.30;;;;;;;;;;5009760;28;20212;-59
2022/10/25 03:47:11;;;;;;;1.40;1.40;;;;;;;;;;5008766;28;20217;-60
2022/10/25 03:49:37;;;;;;;1.40;1.40;;;;;;;;;;4996138;28;20244;-59
2022/10/25 03:52:06;;;;;;;1.43;1.43;;;;;;;;;;5007195;28;20227;-59
2022/10/25 03:54:32;;;;;;;1.60;1.60;;;;;;;;;;4996269;28;20241;-59
2022/10/25 03:56:57;;;;;;;1.60;1.60;;;;;;;;;;4997969;28;20222;-59
2022/10/25 03:59:23;;;;;;;1.30;1.30;;;;;;;;;;5005448;28;20229;-60
2022/10/25 04:01:49;;;;;;;1.40;1.40;;;;;;;;;;4991626;28;20272;-59
2022/10/25 04:04:15;;;;;;;1.50;1.50;;;;;;;;;;5002976;28;20229;-59
2022/10/25 04:06:41;;;;;;;1.50;1.50;;;;;;;;;;4989855;28;20234;-60
2022/10/25 04:09:07;;;;;;;1.40;1.40;;;;;;;;;;4986832;28;20225;-59
2022/10/25 04:11:33;;;;;;;1.40;1.40;;;;;;;;;;4983801;28;20237;-60
2022/10/25 04:13:59;;;;;;;1.20;1.20;;;;;;;;;;4989776;28;20245;-60
2022/10/25 04:16:25;;;;;;;1.30;1.30;;;;;;;;;;4988650;28;20222;-59
2022/10/25 04:18:52;;;;;;;1.30;1.30;;;;;;;;;;4996450;28;20219;-60
2022/10/25 04:21:18;;;;;;;1.40;1.40;;;;;;;;;;4987621;28;20222;-59
2022/10/25 04:23:44;;;;;;;1.20;1.20;;;;;;;;;;4976890;28;20859;-59
2022/10/25 04:26:10;;;;;;;1.50;1.50;;;;;;;;;;5000403;28;20233;-60
2022/10/25 04:28:36;;;;;;;1.43;1.43;;;;;;;;;;5003547;28;20224;-60
2022/10/25 04:31:02;;;;;;;1.20;1.20;;;;;;;;;;5003914;28;20219;-59
2022/10/25 04:33:28;;;;;;;1.30;1.30;;;;;;;;;;4993864;28;20245;-59
2022/10/25 04:35:55;;;;;;;1.37;1.37;;;;;;;;;;4998658;28;20237;-59
2022/10/25 04:38:21;;;;;;;1.40;1.40;;;;;;;;;;4977562;28;20224;-59
2022/10/25 04:40:56;;;;;;;1.30;1.30;;;;;;;;;;4993715;28;20233;-59
2022/10/25 04:43:22;;;;;;;1.20;1.20;;;;;;;;;;4987236;28;20253;-60
2022/10/25 04:45:48;;;;;;;1.30;1.30;;;;;;;;;;4998581;28;20233;-59
2022/10/25 04:48:14;;;;;;;1.27;1.27;;;;;;;;;;5004496;28;20605;-59
2022/10/25 04:50:40;;;;;;;1.30;1.30;;;;;;;;;;4984626;28;20555;-59
2022/10/25 04:53:06;;;;;;;1.40;1.40;;;;;;;;;;4994618;28;20614;-59
2022/10/25 04:55:32;;;;;;;1.30;1.30;;;;;;;;;;4978504;28;20233;-59
2022/10/25 04:57:58;;;;;;;1.40;1.40;;;;;;;;;;4998042;28;20230;-59
2022/10/25 05:00:24;;;;;;;1.50;1.50;;;;;;;;;;4992523;28;20234;-59
2022/10/25 05:02:53;;;;;;;1.30;1.30;;;;;;;;;;4997683;28;20289;-59
2022/10/25 05:05:20;;;;;;;1.30;1.30;;;;;;;;;;4988793;23;20907;-57
2022/10/25 05:07:46;;;;;;;1.40;1.40;;;;;;;;;;4990560;28;20230;-58
2022/10/25 05:10:12;;;;;;;1.40;1.40;;;;;;;;;;4986709;28;20288;-57
2022/10/25 05:12:38;;;;;;;1.30;1.30;;;;;;;;;;4990882;28;20246;-60
2022/10/25 05:15:04;;;;;;;1.40;1.40;;;;;;;;;;4997031;28;20260;-58
2022/10/25 05:17:30;;;;;;;1.30;1.30;;;;;;;;;;5011686;28;20288;-61
2022/10/25 05:19:56;;;;;;;1.30;1.30;;;;;;;;;;4999555;28;20237;-60
2022/10/25 05:22:22;;;;;;;1.40;1.40;;;;;;;;;;4995472;28;20305;-60
2022/10/25 05:24:48;;;;;;;1.30;1.30;;;;;;;;;;5007503;28;20221;-59
2022/10/25 05:27:14;;;;;;;1.40;1.40;;;;;;;;;;4997726;28;20259;-60
2022/10/25 05:29:40;;;;;;;1.43;1.43;;;;;;;;;;4984061;28;20218;-60
2022/10/25 05:32:06;;;;;;;1.40;1.40;;;;;;;;;;4995025;28;20244;-59
2022/10/25 05:34:32;;;;;;;1.40;1.40;;;;;;;;;;4995878;28;20816;-59
2022/10/25 05:36:58;;;;;;;1.20;1.20;;;;;;;;;;5015165;28;20301;-59
2022/10/25 05:39:24;;;;;;;1.40;1.40;;;;;;;;;;5015939;28;20221;-59
2022/10/25 05:41:50;;;;;;;1.50;1.50;;;;;;;;;;5015164;28;20284;-60
2022/10/25 05:44:16;;;;;;;1.30;1.30;;;;;;;;;;5017230;28;20294;-60
2022/10/25 05:46:43;;;;;;;1.20;1.20;;;;;;;;;;5008043;28;20245;-60
2022/10/25 05:49:09;;;;;;;1.40;1.40;;;;;;;;;;5011588;28;20244;-60
2022/10/25 05:51:35;;;;;;;1.40;1.40;;;;;;;;;;5024382;28;20229;-60
2022/10/25 05:54:01;;;;;;;1.37;1.37;;;;;;;;;;5019463;28;20723;-60
2022/10/25 05:56:27;;;;;;;1.50;1.50;;;;;;;;;;5013438;28;20214;-60
2022/10/25 05:58:55;;;;;;;1.20;1.20;;;;;;;;;;5013349;28;20234;-60
2022/10/25 06:01:22;;;;;;;1.40;1.40;;;;;;;;;;5010993;28;20557;-60
2022/10/25 06:03:48;;;;;;;1.30;1.30;;;;;;;;;;5011364;28;20230;-59
2022/10/25 06:06:14;;;;;;;1.30;1.30;;;;;;;;;;4993996;28;20264;-60
2022/10/25 06:08:40;;;;;;;1.30;1.30;;;;;;;;;;4996874;28;20221;-60
2022/10/25 06:11:06;;;;;;;1.30;1.30;;;;;;;;;;4999175;28;20230;-59
2022/10/25 06:13:32;;;;;;;1.50;1.50;;;;;;;;;;4993759;28;20227;-60
2022/10/25 06:15:58;;;;;;;1.40;1.40;;;;;;;;;;4995071;28;20677;-60
2022/10/25 06:18:24;;;;;;;1.30;1.30;;;;;;;;;;4978401;28;20234;-60
2022/10/25 06:20:50;;;;;;;1.40;1.40;;;;;;;;;;4987881;28;20319;-59
2022/10/25 06:23:16;;;;;;;1.57;1.57;;;;;;;;;;4986004;28;20260;-60
2022/10/25 06:25:42;;;;;;;1.23;1.23;;;;;;;;;;4989140;28;20261;-60
2022/10/25 06:28:09;;;;;;;1.60;1.60;;;;;;;;;;4987775;28;20250;-60
2022/10/25 06:30:35;;;;;;;1.50;1.50;;;;;;;;;;4987162;28;20932;-60
2022/10/25 06:33:01;;;;;;;1.40;1.40;;;;;;;;;;4991552;28;20309;-60
2022/10/25 06:35:30;;;;;;;1.40;1.40;;;;;;;;;;4982422;28;20801;-60
2022/10/25 06:38:02;;;;;;;1.40;1.40;;;;;;;;;;4992742;28;20222;-60
2022/10/25 06:40:28;;;;;;;1.27;1.27;;;;;;;;;;4987164;28;20233;-60
2022/10/25 06:42:55;;;;;;;1.20;1.20;;;;;;;;;;4986815;28;20222;-60
2022/10/25 06:45:21;;;;;;;1.20;1.20;;;;;;;;;;4987944;28;20225;-60
2022/10/25 06:47:47;;;;;;;1.20;1.20;;;;;;;;;;4998936;28;20222;-60
2022/10/25 06:50:13;;;;;;;1.17;1.17;;;;;;;;;;4987349;28;20914;-60
2022/10/25 06:52:38;;;;;;;1.13;1.13;;;;;;;;;;4998067;28;20235;-59
2022/10/25 06:55:05;;;;;;;1.27;1.27;;;;;;;;;;4993225;28;20229;-60
2022/10/25 06:57:31;;;;;;;1.30;1.30;;;;;;;;;;4998157;28;20226;-60
2022/10/25 06:59:56;;;;;;;1.10;1.10;;;;;;;;;;4966533;28;20647;-60
2022/10/25 07:02:22;;;;;;;1.30;1.30;;;;;;;;;;4963234;28;20692;-60
2022/10/25 07:04:48;;;;;;;1.10;1.10;;;;;;;;;;4970692;28;20404;-59
2022/10/25 07:07:14;;;;;;;1.10;1.10;;;;;;;;;;4969104;28;20257;-58
2022/10/25 07:09:40;;;;;;;1.27;1.27;;;;;;;;;;4967266;28;20230;-59
2022/10/25 07:12:06;;;;;;;1.20;1.20;;;;;;;;;;4973553;28;20232;-59
2022/10/25 07:14:32;;;;;;;1.30;1.30;;;;;;;;;;4984406;28;20237;-59
2022/10/25 07:16:58;;;;;;;1.20;1.20;;;;;;;;;;4979045;28;20248;-59
2022/10/25 07:19:24;;;;;;;1.30;1.30;;;;;;;;;;4968307;28;20241;-59
2022/10/25 07:21:50;;;;;;;1.40;1.40;;;;;;;;;;4970869;28;21042;-59
2022/10/25 07:24:16;;;;;;;1.30;1.30;;;;;;;;;;4970447;28;20214;-58
2022/10/25 07:26:42;;;;;;;1.30;1.30;;;;;;;;;;4963736;28;20927;-57
2022/10/25 07:29:08;;;;;;;1.30;1.30;;;;;;;;;;4975013;28;20222;-61
2022/10/25 07:31:35;;;;;;;1.30;1.30;;;;;;;;;;4977396;28;20231;-58
2022/10/25 07:34:02;;;;;;;1.33;1.33;;;;;;;;;;4973897;28;20600;-58
2022/10/25 07:36:27;;;;;;;1.23;1.23;;;;;;;;;;4988087;28;20229;-60
2022/10/25 07:38:55;;;;;;;1.20;1.20;;;;;;;;;;4953656;28;20244;-57
2022/10/25 07:41:21;;;;;;;1.20;1.20;;;;;;;;;;4976538;28;20216;-59
2022/10/25 07:43:46;;;;;;;1.00;1.00;;;;;;;;;;4974113;28;20233;-59
2022/10/25 07:46:13;;;;;;;1.40;1.40;;;;;;;;;;4968004;28;20223;-58
2022/10/25 07:48:39;;;;;;;1.20;1.20;;;;;;;;;;4972541;28;20579;-58
2022/10/25 07:51:05;;;;;;;1.10;1.10;;;;;;;;;;4978620;28;20228;-59
2022/10/25 07:53:31;;;;;;;1.10;1.10;;;;;;;;;;4960786;28;20574;-59
2022/10/25 07:55:57;;;;;;;1.10;1.10;;;;;;;;;;4978846;28;20281;-59
2022/10/25 07:58:23;;;;;;;1.10;1.10;;;;;;;;;;4974114;28;20382;-59
2022/10/25 08:00:49;;;;;;;1.10;1.10;;;;;;;;;;4979978;28;20218;-59
2022/10/25 08:03:15;;;;;;;1.10;1.10;;;;;;;;;;4957058;28;20230;-59
2022/10/25 08:05:44;;;;;;;1.20;1.20;;;;;;;;;;4971350;28;20304;-59
2022/10/25 08:08:11;;;;;;;1.10;1.10;;;;;;;;;;4978148;28;20275;-58
2022/10/25 08:10:37;;;;;;;1.20;1.20;;;;;;;;;;4981681;28;20312;-59
2022/10/25 08:13:03;;;;;;;1.00;1.00;;;;;;;;;;4974627;28;20290;-59
2022/10/25 08:15:29;;;;;;;1.10;1.10;;;;;;;;;;4983139;28;20272;-59
2022/10/25 08:18:01;;;;;;;1.10;1.10;;;;;;;;;;4979511;28;20214;-58
2022/10/25 08:20:27;;;;;;;1.20;1.20;;;;;;;;;;4977968;28;20618;-59
2022/10/25 08:22:56;;;;;;;0.90;0.90;;;;;;;;;;4979392;28;20226;-59
2022/10/25 08:25:22;;;;;;;1.10;1.10;;;;;;;;;;4974339;28;20230;-59
2022/10/25 08:27:48;;;;;;;1.23;1.23;;;;;;;;;;4984984;28;20237;-59
2022/10/25 08:30:14;;;;;;;1.40;1.40;;;;;;;;;;4987277;28;20222;-59
2022/10/25 08:32:40;;;;;;;1.50;1.50;;;;;;;;;;4990594;28;20265;-58
2022/10/25 08:35:06;;;;;;;1.30;1.30;;;;;;;;;;4991602;28;20249;-59
2022/10/25 08:37:32;;;;;;;1.30;1.30;;;;;;;;;;4987913;28;20580;-58
2022/10/25 08:39:58;;;;;;;1.30;1.30;;;;;;;;;;4999181;28;20223;-59
2022/10/25 08:42:27;;;;;;;0.97;0.97;;;;;;;;;;4998674;28;20217;-59
2022/10/25 08:45:01;;;;;;;1.20;1.20;;;;;;;;;;4975477;28;20238;-58
2022/10/25 08:47:30;;;;;;;1.30;1.30;;;;;;;;;;4973083;28;20225;-58
2022/10/25 08:50:04;;;;;;;1.20;1.20;;;;;;;;;;4991030;28;20218;-59
2022/10/25 08:52:30;;;;;;;1.50;1.50;;;;;;;;;;4969181;28;20230;-59
2022/10/25 08:54:57;;;;;;;1.20;1.20;;;;;;;;;;4991274;28;20293;-59
2022/10/25 08:57:23;;;;;;;1.10;1.10;;;;;;;;;;4999962;28;20252;-59
2022/10/25 08:59:50;;;;;;;1.63;1.63;;;;;;;;;;5001675;28;20313;-60
2022/10/25 09:02:17;;;;;;;1.60;1.60;;;;;;;;;;4982783;28;21227;-59
2022/10/25 09:04:43;;;;;;;1.80;1.70;;;;;;;;;;4986568;28;20230;-59
2022/10/25 09:07:13;;;;;;;1.90;1.80;;;;;;;;;;4985082;28;20236;-59
2022/10/25 09:09:55;;;;;;;1.98;1.88;;;;;;;;;;4978021;28;20305;-58
2022/10/25 09:12:24;;;;;;;1.60;1.60;;;;;;;;;;4991853;28;20238;-59
2022/10/25 09:14:52;;;;;;;1.20;1.20;;;;;;;;;;4987299;28;20922;-59
2022/10/25 09:17:19;;;;;;;1.10;1.10;;;;;;;;;;4977818;28;20317;-59
2022/10/25 09:19:45;;;;;;;1.30;1.30;;;;;;;;;;4987725;28;20293;-59
2022/10/25 09:22:14;;;;;;;1.40;1.40;;;;;;;;;;4983691;28;20204;-59
2022/10/25 09:24:58;;;;;;;1.30;1.30;;;;;;;;;;4989618;28;20910;-59
2022/10/25 09:27:24;;;;;;;1.40;1.40;;;;;;;;;;4991285;28;20234;-58
2022/10/25 09:29:52;;;;;;;1.40;1.40;;;;;;;;;;4995802;28;20218;-58
2022/10/25 09:32:37;;;;;;;1.50;1.50;;;;;;;;;;4999876;28;20230;-59
2022/10/25 09:35:04;;;;;;;1.40;1.40;;;;;;;;;;4998335;28;20235;-58
2022/10/25 09:37:31;;;;;;;1.40;1.40;;;;;;;;;;5007428;28;20276;-59
2022/10/25 09:39:59;;;;;;;1.50;1.50;;;;;;;;;;4983798;28;20252;-58
2022/10/25 09:42:45;;;;;;;1.70;1.70;;;;;;;;;;4982774;28;20311;-59
2022/10/25 09:45:16;;;;;;;1.60;1.60;;;;;;;;;;4989953;28;20305;-59
2022/10/25 09:47:43;;;;;;;1.50;1.50;;;;;;;;;;4990966;28;20226;-58
2022/10/25 09:50:09;;;;;;;1.58;1.58;;;;;;;;;;4977118;28;20213;-58
2022/10/25 09:52:54;;;;;;;1.42;1.42;;;;;;;;;;4997284;28;20310;-58
2022/10/25 09:55:31;;;;;;;1.60;1.60;;;;;;;;;;4997808;28;20236;-59
2022/10/25 09:57:57;;;;;;;1.58;1.58;;;;;;;;;;4992630;28;20227;-58
2022/10/25 10:00:23;;;;;;;1.40;1.40;;;;;;;;;;4992454;28;20246;-58
2022/10/25 10:02:49;;;;;;;1.20;1.20;;;;;;;;;;5008103;28;20214;-59
2022/10/25 10:05:15;;;;;;;1.30;1.30;;;;;;;;;;4997942;28;20241;-59
2022/10/25 10:07:41;;;;;;;1.55;1.55;;;;;;;;;;4995891;28;20222;-58
2022/10/25 10:10:08;;;;;;;1.30;1.30;;;;;;;;;;4973585;28;20214;-58
2022/10/25 10:12:36;;;;;;;1.20;1.20;;;;;;;;;;4981352;28;20217;-58
2022/10/25 10:15:11;;;;;;;1.40;1.40;;;;;;;;;;4986180;28;21518;-58
2022/10/25 10:17:37;;;;;;;1.60;1.60;;;;;;;;;;4972236;28;20217;-58
2022/10/25 10:20:13;;;;;;;1.48;1.48;;;;;;;;;;5006792;28;20218;-58
2022/10/25 10:22:46;;;;;;;1.50;1.50;;;;;;;;;;5006067;28;20237;-58
2022/10/25 10:25:14;;;;;;;1.52;1.52;;;;;;;;;;4995669;28;20696;-59
2022/10/25 10:27:40;;;;;;;1.40;1.40;;;;;;;;;;4977563;28;20221;-59
2022/10/25 10:30:07;;;;;;;1.67;1.67;;;;;;;;;;4998608;28;20226;-58
2022/10/25 10:32:37;;;;;;;1.30;1.30;;;;;;;;;;4981933;28;20261;-58
2022/10/25 10:35:05;;;;;;;1.50;1.50;;;;;;;;;;5009096;28;20233;-58
2022/10/25 10:37:31;;;;;;;1.30;1.30;;;;;;;;;;5006393;28;20314;-58
2022/10/25 10:40:01;;;;;;;1.10;1.10;;;;;;;;;;4994424;28;20231;-58
2022/10/25 10:42:36;;;;;;;1.30;1.30;;;;;;;;;;4978281;28;20221;-59
2022/10/25 10:45:07;;;;;;;1.10;1.10;;;;;;;;;;5004959;28;20242;-58
2022/10/25 10:47:34;;;;;;;1.20;1.20;;;;;;;;;;4982697;28;20249;-58
2022/10/25 10:50:00;;;;;;;1.10;1.10;;;;;;;;;;4992834;28;20222;-58
2022/10/25 10:52:30;;;;;;;1.10;1.10;;;;;;;;;;4987569;28;20254;-58
2022/10/25 10:54:56;;;;;;;1.20;1.20;;;;;;;;;;4985808;28;20214;-58
2022/10/25 10:57:31;;;;;;;1.30;1.30;;;;;;;;;;4998482;28;20211;-59
2022/10/25 10:59:57;;;;;;;1.20;1.20;;;;;;;;;;4997712;28;20226;-58
2022/10/25 11:02:23;;;;;;;1.30;1.30;;;;;;;;;;4987973;28;20775;-58
2022/10/25 11:04:49;;;;;;;1.40;1.40;;;;;;;;;;4994511;28;20223;-58
2022/10/25 11:07:20;;;;;;;1.40;1.40;;;;;;;;;;4990791;28;20218;-58
2022/10/25 11:09:46;;;;;;;1.60;1.60;;;;;;;;;;4978493;28;20228;-58
2022/10/25 11:12:15;;;;;;;1.90;1.80;;;;;;;;;;4974643;28;20226;-58
2022/10/25 11:14:41;;;;;;;1.75;1.70;;;;;;;;;;4984814;28;20230;-58
2022/10/25 11:17:12;;;;;;;1.67;1.67;;;;;;;;;;5001861;28;21159;-59
2022/10/25 11:19:39;;;;;;;1.50;1.50;;;;;;;;;;4968131;28;20226;-58
2022/10/25 11:22:05;;;;;;;1.55;1.55;;;;;;;;;;4988342;28;20697;-59
2022/10/25 11:24:31;;;;;;;1.50;1.50;;;;;;;;;;4989360;28;20230;-58
2022/10/25 11:27:05;;;;;;;1.60;1.60;;;;;;;;;;4981926;28;20217;-59
2022/10/25 11:29:31;;;;;;;1.67;1.67;;;;;;;;;;4985948;28;20443;-59
2022/10/25 11:32:23;;;;;;;1.40;1.40;;;;;;;;;;4985819;28;20230;-59
2022/10/25 11:34:59;;;;;;;1.17;1.17;;;;;;;;;;4951998;28;20242;-59
2022/10/25 11:37:32;;;;;;;1.40;1.40;;;;;;;;;;4979537;28;20325;-59
2022/10/25 11:40:02;;;;;;;1.40;1.40;;;;;;;;;;4977513;28;20233;-59
2022/10/25 11:42:32;;;;;;;1.40;1.40;;;;;;;;;;4973882;28;20227;-58
2022/10/25 11:45:17;;;;;;;1.20;1.20;;;;;;;;;;4981723;28;20233;-59
2022/10/25 11:47:47;;;;;;;1.33;1.33;;;;;;;;;;4985716;28;20327;-58
2022/10/25 11:50:19;;;;;;;1.42;1.42;;;;;;;;;;4977250;28;20226;-59
2022/10/25 11:52:48;;;;;;;1.55;1.55;;;;;;;;;;4987163;28;20224;-58
2022/10/25 11:55:29;;;;;;;1.50;1.50;;;;;;;;;;4978971;28;20225;-59
2022/10/25 11:58:02;;;;;;;1.60;1.60;;;;;;;;;;4986942;28;20222;-59
2022/10/25 12:00:31;;;;;;;1.50;1.50;;;;;;;;;;4986059;28;20717;-59
2022/10/25 12:03:01;;;;;;;1.40;1.40;;;;;;;;;;4985435;28;20222;-59
2022/10/25 12:05:42;;;;;;;1.40;1.40;;;;;;;;;;4974338;28;20317;-58
2022/10/25 12:08:17;;;;;;;1.50;1.50;;;;;;;;;;4988150;28;20255;-58
2022/10/25 12:10:46;;;;;;;1.60;1.60;;;;;;;;;;4979625;28;20237;-58
2022/10/25 12:13:18;;;;;;;1.58;1.58;;;;;;;;;;4996706;28;20211;-59
2022/10/25 12:15:48;;;;;;;1.60;1.60;;;;;;;;;;4968899;28;20229;-58
2022/10/25 12:18:16;;;;;;;1.40;1.40;;;;;;;;;;4966726;28;20232;-59
2022/10/25 12:20:43;;;;;;;1.60;1.60;;;;;;;;;;4965505;28;20261;-58
2022/10/25 12:23:12;;;;;;;1.30;1.30;;;;;;;;;;4987862;28;26112;-59
2022/10/25 12:25:44;;;;;;;0.80;0.80;;;;;;;;;;4972968;28;20241;-59
2022/10/25 12:28:16;;;;;;;0.60;0.60;;;;;;;;;;4981967;28;20274;-59
2022/10/25 12:30:42;;;;;;;0.85;0.85;;;;;;;;;;4961200;28;20230;-59
2022/10/25 12:33:17;;;;;;;0.80;0.80;;;;;;;;;;4965845;28;20252;-58
2022/10/25 12:35:44;;;;;;;0.80;0.80;;;;;;;;;;4960423;28;20750;-59
2022/10/25 12:38:12;;;;;;;0.60;0.60;;;;;;;;;;4972041;28;20248;-59
2022/10/25 12:40:40;;;;;;;0.70;0.70;;;;;;;;;;4969508;28;20668;-59
2022/10/25 12:43:12;;;;;;;0.60;0.60;;;;;;;;;;4971789;28;20227;-59
2022/10/25 12:45:57;;;;;;;0.68;0.68;;;;;;;;;;4988603;28;20278;-58
2022/10/25 12:48:33;;;;;;;0.70;0.70;;;;;;;;;;4993477;28;20213;-58
2022/10/25 12:51:03;;;;;;;0.60;0.60;;;;;;;;;;4971850;28;20342;-57
2022/10/25 12:53:43;;;;;;;0.70;0.70;;;;;;;;;;4972432;28;20903;-57
2022/10/25 12:56:16;;;;;;;0.63;0.63;;;;;;;;;;4942828;28;20248;-57
2022/10/25 12:59:01;;;;;;;0.90;0.90;;;;;;;;;;4964693;28;20234;-56
2022/10/25 13:01:30;;;;;;;0.80;0.80;;;;;;;;;;4962217;28;20606;-57
2022/10/25 13:04:08;;;;;;;0.80;0.80;;;;;;;;;;4966325;28;20309;-57
2022/10/25 13:06:38;;;;;;;0.95;0.95;;;;;;;;;;4963413;28;20238;-57
2022/10/25 13:09:05;;;;;;;0.90;0.90;;;;;;;;;;4976800;28;20222;-58
2022/10/25 13:11:32;;;;;;;0.80;0.80;;;;;;;;;;4951856;28;20231;-58
2022/10/25 13:13:59;;;;;;;0.70;0.70;;;;;;;;;;4968267;28;20653;-57
2022/10/25 13:16:26;;;;;;;0.50;0.50;;;;;;;;;;4964155;28;20704;-58
2022/10/25 13:19:11;;;;;;;0.85;0.85;;;;;;;;;;4968832;28;20239;-58
2022/10/25 13:22:04;;;;;;;0.70;0.70;;;;;;;;;;4951218;28;20253;-57
2022/10/25 13:24:43;;;;;;;0.90;0.90;;;;;;;;;;4967863;28;20261;-57
2022/10/25 13:27:12;;;;;;;0.70;0.70;;;;;;;;;;4949995;28;20688;-57
2022/10/25 13:29:45;;;;;;;0.70;0.70;;;;;;;;;;4953374;28;20757;-58
2022/10/25 13:32:16;;;;;;;0.63;0.63;;;;;;;;;;4967959;28;20794;-58
2022/10/25 13:34:42;;;;;;;0.50;0.50;;;;;;;;;;4957734;28;20234;-61
2022/10/25 13:37:29;;;;;;;0.73;0.73;;;;;;;;;;4971936;28;20321;-57
2022/10/25 13:39:55;;;;;;;0.60;0.60;;;;;;;;;;4955535;28;20318;-58
2022/10/25 13:42:31;;;;;;;0.60;0.60;;;;;;;;;;4949223;28;20868;-57
2022/10/25 13:45:03;;;;;;;0.68;0.68;;;;;;;;;;4952941;28;20276;-57
2022/10/25 13:47:32;;;;;;;0.60;0.60;;;;;;;;;;4964603;28;20268;-57
2022/10/25 13:49:58;;;;;;;0.60;0.60;;;;;;;;;;4974946;28;20320;-57
2022/10/25 13:52:24;;;;;;;0.70;0.70;;;;;;;;;;4972297;28;20309;-57
2022/10/25 13:54:50;;;;;;;0.50;0.50;;;;;;;;;;4946805;28;20236;-57
2022/10/25 13:57:42;;;;;;;0.60;0.60;;;;;;;;;;4951382;28;20668;-57
2022/10/25 14:00:21;;;;;;;0.60;0.60;;;;;;;;;;4918953;28;20345;-57
2022/10/25 14:03:06;;;;;;;0.65;0.65;;;;;;;;;;4921362;28;20237;-59
2022/10/25 14:05:51;;;;;;;0.60;0.60;;;;;;;;;;4942174;28;20368;-59
2022/10/25 14:08:18;;;;;;;0.70;0.70;;;;;;;;;;4961086;28;21047;-59
2022/10/25 14:10:44;;;;;;;0.70;0.70;;;;;;;;;;4945597;28;20257;-59
2022/10/25 14:13:14;;;;;;;0.60;0.60;;;;;;;;;;4960021;28;21215;-59
2022/10/25 14:15:45;;;;;;;0.60;0.60;;;;;;;;;;4953653;28;20574;-59
2022/10/25 14:18:15;;;;;;;0.60;0.60;;;;;;;;;;4964379;28;20230;-59
2022/10/25 14:20:41;;;;;;;0.60;0.60;;;;;;;;;;4975676;28;20233;-58
2022/10/25 14:23:07;;;;;;;0.60;0.60;;;;;;;;;;4925865;28;20229;-58
2022/10/25 14:25:35;;;;;;;0.50;0.50;;;;;;;;;;4945235;28;20333;-57
2022/10/25 14:28:15;;;;;;;0.80;0.80;;;;;;;;;;4922985;28;20729;-58
2022/10/25 14:30:48;;;;;;;0.70;0.70;;;;;;;;;;4961117;28;20214;-61
2022/10/25 14:33:29;;;;;;;1.00;1.00;;;;;;;;;;4944726;28;20960;-61
2022/10/25 14:36:06;;;;;;;0.82;0.82;;;;;;;;;;4979576;28;20234;-61
2022/10/25 14:38:34;;;;;;;0.82;0.82;;;;;;;;;;4963033;28;20348;-61
2022/10/25 14:41:01;;;;;;;0.80;0.80;;;;;;;;;;4973065;28;20299;-60
2022/10/25 14:43:35;;;;;;;0.90;0.90;;;;;;;;;;4975896;28;20621;-61
2022/10/25 14:46:02;;;;;;;0.70;0.70;;;;;;;;;;4970831;28;20226;-61
2022/10/25 14:48:28;;;;;;;0.70;0.70;;;;;;;;;;4971482;28;20398;-60
2022/10/25 14:50:54;;;;;;;0.70;0.70;;;;;;;;;;4971649;28;20309;-61